createdAt,value
2018-11-07T00:01:55.164Z,80.00
2018-11-07T00:04:23.360Z,81.00
2018-11-07T00:06:51.573Z,81.70
2018-11-07T00:09:19.933Z,80.40
2018-11-07T00:11:48.126Z,80.80
2018-11-07T00:14:16.349Z,81.50
2018-11-07T00:16:45.617Z,79.90
2018-11-07T00:19:13.864Z,79.90
2018-11-07T00:21:42.128Z,79.80
2018-11-07T00:24:10.428Z,81.20
2018-11-07T00:26:38.788Z,80.60
2018-11-07T00:29:07.105Z,80.80
2018-11-07T00:31:35.418Z,80.50
2018-11-07T00:34:03.692Z,80.00
2018-11-07T00:36:31.956Z,79.90
2018-11-07T00:39:00.560Z,79.20
2018-11-07T00:41:28.766Z,79.40
2018-11-07T00:43:56.976Z,79.30
2018-11-07T00:46:25.373Z,79.20
2018-11-07T00:48:53.584Z,77.40
2018-11-07T00:51:21.824Z,78.30
2018-11-07T00:53:50.156Z,77.10
2018-11-07T00:56:18.547Z,77.30
2018-11-07T00:58:46.840Z,78.10
2018-11-07T01:01:15.166Z,77.20
2018-11-07T01:03:43.425Z,77.50
2018-11-07T01:06:11.773Z,78.30
2018-11-07T01:08:39.959Z,76.60
2018-11-07T01:11:08.207Z,77.30
2018-11-07T01:13:37.012Z,77.90
2018-11-07T01:16:05.829Z,77.20
2018-11-07T01:18:35.011Z,77.00
2018-11-07T01:21:03.317Z,77.70
2018-11-07T01:23:31.547Z,77.70
2018-11-07T01:25:59.768Z,76.80
2018-11-07T01:28:28.132Z,77.00
2018-11-07T01:30:56.325Z,77.90
2018-11-07T01:33:24.561Z,76.80
2018-11-07T01:35:52.894Z,78.50
2018-11-07T01:38:21.233Z,78.20
2018-11-07T01:40:49.563Z,77.90
2018-11-07T01:43:17.773Z,78.70
2018-11-07T01:45:46.063Z,77.80
2018-11-07T01:48:14.392Z,78.20
2018-11-07T01:50:42.624Z,78.70
2018-11-07T01:53:11.140Z,79.00
2018-11-07T01:55:39.359Z,78.00
2018-11-07T01:58:07.581Z,80.10
2018-11-07T02:00:35.871Z,80.50
2018-11-07T02:03:04.214Z,80.10
2018-11-07T02:05:32.491Z,79.40
2018-11-07T02:08:00.829Z,79.50
2018-11-07T02:10:29.052Z,79.80
2018-11-07T02:12:57.388Z,79.90
2018-11-07T02:15:25.639Z,79.10
2018-11-07T02:17:53.866Z,80.10
2018-11-07T02:20:22.372Z,79.40
2018-11-07T02:22:50.606Z,79.80
2018-11-07T02:25:18.784Z,79.90
2018-11-07T02:27:48.034Z,80.00
2018-11-07T02:30:16.316Z,78.50
2018-11-07T02:32:44.783Z,78.60
2018-11-07T02:35:13.372Z,79.00
2018-11-07T02:37:41.634Z,80.30
2018-11-07T02:40:10.008Z,80.50
2018-11-07T02:42:38.583Z,80.60
2018-11-07T02:45:06.955Z,81.00
2018-11-07T02:47:35.360Z,80.60
2018-11-07T02:50:04.423Z,80.20
2018-11-07T02:52:32.656Z,79.90
2018-11-07T02:55:00.835Z,80.50
2018-11-07T02:57:29.147Z,80.00
2018-11-07T02:59:57.398Z,79.70
2018-11-07T03:02:25.722Z,79.40
2018-11-07T03:04:53.974Z,79.20
2018-11-07T03:07:22.286Z,79.10
2018-11-07T03:09:50.684Z,80.00
2018-11-07T03:12:18.917Z,79.30
2018-11-07T03:14:47.192Z,80.40
2018-11-07T03:17:15.564Z,81.20
2018-11-07T03:19:43.770Z,81.50
2018-11-07T03:22:12.088Z,81.10
2018-11-07T03:24:40.395Z,81.80
2018-11-07T03:27:08.604Z,81.10
2018-11-07T03:29:36.905Z,80.70
2018-11-07T03:32:05.569Z,82.00
2018-11-07T03:34:33.735Z,82.00
2018-11-07T03:37:02.093Z,83.00
2018-11-07T03:39:30.334Z,82.30
2018-11-07T03:41:58.583Z,80.90
2018-11-07T03:44:26.978Z,81.00
2018-11-07T03:46:55.205Z,81.60
2018-11-07T03:49:23.430Z,80.80
2018-11-07T03:51:51.781Z,80.10
2018-11-07T03:54:19.977Z,81.40
2018-11-07T03:56:48.250Z,81.30
2018-11-07T03:59:16.644Z,81.70
2018-11-07T04:01:44.857Z,81.00
2018-11-07T04:04:13.103Z,83.00
2018-11-07T04:06:41.429Z,81.30
2018-11-07T04:09:11.640Z,81.50
2018-11-07T04:11:40.047Z,79.90
2018-11-07T04:14:08.208Z,79.80
2018-11-07T04:16:36.534Z,81.80
2018-11-07T04:19:05.242Z,80.40
2018-11-07T04:21:33.532Z,80.00
2018-11-07T04:24:02.934Z,80.70
2018-11-07T04:26:33.004Z,82.80
2018-11-07T04:29:01.223Z,84.20
2018-11-07T04:31:30.061Z,84.60
2018-11-07T04:33:58.319Z,84.70
2018-11-07T04:36:26.670Z,84.90
2018-11-07T04:38:55.405Z,86.20
2018-11-07T04:41:23.778Z,84.40
2018-11-07T04:43:52.017Z,85.80
2018-11-07T04:46:20.314Z,86.30
2018-11-07T04:48:48.563Z,86.50
2018-11-07T04:51:16.763Z,86.50
2018-11-07T04:53:45.081Z,86.80
2018-11-07T04:56:13.516Z,85.90
2018-11-07T04:58:41.969Z,86.30
2018-11-07T05:01:10.350Z,87.50
2018-11-07T05:03:38.794Z,89.00
2018-11-07T05:06:07.303Z,87.80
2018-11-07T05:08:35.613Z,88.10
2018-11-07T05:11:03.944Z,87.60
2018-11-07T05:13:32.350Z,87.70
2018-11-07T05:16:00.664Z,87.50
2018-11-07T05:18:28.979Z,86.30
2018-11-07T05:20:57.471Z,86.90
2018-11-07T05:23:25.889Z,87.00
2018-11-07T05:25:54.135Z,88.40
2018-11-07T05:28:22.405Z,88.20
2018-11-07T05:30:50.804Z,88.40
2018-11-07T05:33:19.269Z,88.50
2018-11-07T05:35:47.516Z,88.10
2018-11-07T05:38:15.953Z,87.90
2018-11-07T05:40:44.199Z,88.10
2018-11-07T05:43:12.467Z,86.60
2018-11-07T05:45:40.867Z,87.60
2018-11-07T05:48:09.672Z,88.10
2018-11-07T05:50:38.100Z,87.50
2018-11-07T05:53:06.691Z,87.90
2018-11-07T05:55:35.016Z,87.60
2018-11-07T05:58:03.513Z,86.80
2018-11-07T06:00:31.911Z,85.80
2018-11-07T06:03:00.131Z,86.10
2018-11-07T06:05:28.573Z,86.20
2018-11-07T06:07:56.838Z,85.90
2018-11-07T06:10:25.121Z,86.10
2018-11-07T06:12:53.546Z,86.00
2018-11-07T06:15:22.161Z,86.50
2018-11-07T06:17:50.575Z,86.50
2018-11-07T06:20:18.922Z,86.50
2018-11-07T06:22:47.589Z,86.20
2018-11-07T06:25:15.937Z,86.90
2018-11-07T06:27:44.220Z,87.00
2018-11-07T06:30:12.976Z,87.90
2018-11-07T06:32:42.112Z,87.40
2018-11-07T06:35:11.099Z,87.70
2018-11-07T06:37:39.671Z,87.60
2018-11-07T06:40:10.825Z,87.30
2018-11-07T06:42:39.298Z,88.90
2018-11-07T06:45:08.613Z,88.30
2018-11-07T06:47:37.037Z,87.60
2018-11-07T06:50:08.700Z,88.80
2018-11-07T06:52:37.423Z,87.80
2018-11-07T06:55:06.827Z,87.80
2018-11-07T06:57:35.153Z,87.50
2018-11-07T07:00:04.185Z,86.00
2018-11-07T07:02:32.980Z,86.40
2018-11-07T07:05:01.281Z,85.30
2018-11-07T07:07:29.989Z,86.10
2018-11-07T07:09:58.472Z,85.10
2018-11-07T07:12:27.657Z,86.20
2018-11-07T07:14:56.119Z,84.70
2018-11-07T07:17:24.584Z,86.10
2018-11-07T07:19:52.935Z,86.90
2018-11-07T07:22:21.402Z,86.80
2018-11-07T07:24:49.764Z,85.00
2018-11-07T07:27:18.113Z,85.50
2018-11-07T07:29:46.517Z,84.80
2018-11-07T07:32:14.942Z,86.40
2018-11-07T07:34:43.179Z,86.50
2018-11-07T07:37:11.458Z,86.50
2018-11-07T07:39:39.907Z,86.60
2018-11-07T07:42:08.150Z,84.00
2018-11-07T07:44:36.523Z,85.80
2018-11-07T07:47:05.381Z,84.50
2018-11-07T07:49:33.607Z,84.10
2018-11-07T07:52:01.931Z,84.60
2018-11-07T07:54:30.453Z,84.50
2018-11-07T07:56:59.597Z,82.80
2018-11-07T07:59:27.980Z,83.50
2018-11-07T08:01:56.351Z,83.00
2018-11-07T08:04:24.602Z,81.00
2018-11-07T08:06:53.221Z,81.40
2018-11-07T08:09:21.537Z,81.30
2018-11-07T08:11:49.779Z,81.60
2018-11-07T08:14:18.067Z,81.40
2018-11-07T08:16:46.507Z,80.50
2018-11-07T08:19:14.804Z,80.10
2018-11-07T08:21:43.172Z,81.50
2018-11-07T08:24:11.655Z,79.40
2018-11-07T08:26:39.948Z,80.60
2018-11-07T08:29:08.606Z,80.20
2018-11-07T08:31:37.000Z,80.20
2018-11-07T08:34:05.535Z,81.80
2018-11-07T08:36:34.046Z,82.70
2018-11-07T08:39:03.293Z,83.60
2018-11-07T08:41:31.589Z,82.60
2018-11-07T08:43:59.816Z,82.60
2018-11-07T08:46:28.257Z,80.20
2018-11-07T08:48:56.686Z,79.70
2018-11-07T08:51:24.990Z,79.00
2018-11-07T08:53:53.226Z,77.20
2018-11-07T08:56:21.610Z,77.00
2018-11-07T08:58:49.852Z,76.00
2018-11-07T09:01:18.248Z,75.10
2018-11-07T09:03:46.458Z,75.10
2018-11-07T09:06:14.773Z,72.40
2018-11-07T09:08:43.587Z,71.90
2018-11-07T09:11:11.816Z,71.90
2018-11-07T09:13:40.077Z,71.00
2018-11-07T09:16:08.453Z,72.20
2018-11-07T09:18:36.828Z,71.40
2018-11-07T09:21:05.211Z,71.00
2018-11-07T09:23:33.580Z,71.00
2018-11-07T09:26:01.826Z,73.00
2018-11-07T09:28:30.223Z,72.00
2018-11-07T09:30:58.663Z,70.90
2018-11-07T09:33:27.363Z,69.50
2018-11-07T09:35:55.867Z,69.80
2018-11-07T09:38:24.148Z,70.80
2018-11-07T09:40:52.436Z,70.20
2018-11-07T09:43:20.799Z,66.00
2018-11-07T09:45:49.079Z,66.90
2018-11-07T09:48:17.724Z,69.50
2018-11-07T09:50:45.987Z,67.90
2018-11-07T09:53:14.356Z,70.20
2018-11-07T09:55:42.851Z,69.90
2018-11-07T09:58:11.113Z,69.80
2018-11-07T10:00:39.399Z,69.50
2018-11-07T10:03:07.820Z,68.40
2018-11-07T10:05:36.134Z,67.90
2018-11-07T10:08:04.875Z,68.20
2018-11-07T10:10:34.953Z,67.20
2018-11-07T10:13:03.259Z,65.10
2018-11-07T10:15:31.495Z,65.90
2018-11-07T10:17:59.892Z,62.50
2018-11-07T10:20:28.343Z,63.80
2018-11-07T10:22:57.562Z,65.30
2018-11-07T10:25:25.971Z,64.50
2018-11-07T10:27:54.893Z,65.50
2018-11-07T10:30:22.785Z,62.60
2018-11-07T10:32:51.429Z,64.00
2018-11-07T10:35:19.791Z,64.00
2018-11-07T10:37:48.146Z,64.20
2018-11-07T10:40:20.965Z,62.30
2018-11-07T10:42:49.310Z,62.90
2018-11-07T10:45:17.610Z,61.10
2018-11-07T10:47:46.915Z,63.40
2018-11-07T10:50:16.911Z,63.00
2018-11-07T10:52:45.774Z,62.00
2018-11-07T10:55:14.865Z,63.20
2018-11-07T10:57:43.316Z,61.50
2018-11-07T11:00:18.839Z,61.00
2018-11-07T11:02:51.953Z,60.70
2018-11-07T11:05:20.435Z,63.20
2018-11-07T11:07:48.708Z,62.70
2018-11-07T11:10:17.186Z,59.70
2018-11-07T11:12:45.575Z,61.50
2018-11-07T11:15:13.825Z,63.90
2018-11-07T11:17:42.153Z,64.10
2018-11-07T11:20:12.223Z,63.90
2018-11-07T11:22:40.650Z,65.70
2018-11-07T11:25:09.161Z,63.40
2018-11-07T11:27:38.250Z,63.10
2018-11-07T11:30:07.740Z,63.00
2018-11-07T11:32:36.071Z,63.30
2018-11-07T11:35:05.591Z,62.20
2018-11-07T11:37:33.879Z,64.10
2018-11-07T11:40:02.217Z,60.50
2018-11-07T11:42:30.553Z,59.90
2018-11-07T11:44:58.965Z,58.70
2018-11-07T11:47:27.193Z,60.10
2018-11-07T11:49:55.551Z,57.20
2018-11-07T11:52:24.344Z,59.20
2018-11-07T11:54:52.574Z,57.70
2018-11-07T11:57:20.991Z,59.90
2018-11-07T11:59:49.646Z,57.00
2018-11-07T12:02:17.749Z,58.00
2018-11-07T12:04:45.937Z,58.00
2018-11-07T12:07:14.646Z,60.10
2018-11-07T12:09:43.007Z,60.60
2018-11-07T12:12:11.261Z,59.70
2018-11-07T12:14:39.651Z,59.80
2018-11-07T12:17:08.010Z,59.20
2018-11-07T12:19:36.315Z,59.00
2018-11-07T12:22:04.620Z,60.60
2018-11-07T12:24:33.076Z,61.40
2018-11-07T12:27:01.545Z,62.90
2018-11-07T12:29:29.848Z,63.10
2018-11-07T12:31:58.102Z,61.20
2018-11-07T12:34:26.307Z,64.20
2018-11-07T12:36:54.671Z,64.50
2018-11-07T12:39:22.974Z,65.70
2018-11-07T12:41:51.387Z,66.60
2018-11-07T12:44:19.842Z,66.70
2018-11-07T12:46:48.094Z,66.90
2018-11-07T12:49:16.398Z,67.70
2018-11-07T12:51:44.753Z,68.80
2018-11-07T12:54:13.014Z,69.70
2018-11-07T12:56:41.263Z,69.30
2018-11-07T12:59:09.598Z,70.20
2018-11-07T13:01:37.801Z,70.70
2018-11-07T13:04:06.268Z,71.80
2018-11-07T13:06:34.555Z,72.10
2018-11-07T13:09:03.207Z,73.50
2018-11-07T13:11:31.691Z,74.40
2018-11-07T13:13:59.871Z,75.00
2018-11-07T13:16:28.287Z,74.90
2018-11-07T13:18:56.722Z,74.90
2018-11-07T13:21:25.074Z,76.80
2018-11-07T13:23:53.312Z,78.30
2018-11-07T13:26:21.739Z,76.80
2018-11-07T13:28:50.139Z,76.90
2018-11-07T13:31:18.343Z,76.80
2018-11-07T13:33:46.656Z,76.60
2018-11-07T13:36:14.944Z,77.80
2018-11-07T13:38:43.603Z,78.60
2018-11-07T13:41:11.529Z,78.90
2018-11-07T13:43:39.751Z,79.00
2018-11-07T13:46:08.126Z,78.40
2018-11-07T13:48:36.374Z,79.40
2018-11-07T13:51:04.683Z,79.20
2018-11-07T13:53:34.326Z,81.20
2018-11-07T13:56:02.610Z,81.50
2018-11-07T13:58:30.868Z,82.80
2018-11-07T14:00:59.264Z,83.00
2018-11-07T14:03:27.579Z,82.80
2018-11-07T14:05:55.922Z,82.30
2018-11-07T14:08:24.275Z,83.60
2018-11-07T14:10:52.561Z,83.20
2018-11-07T14:13:20.943Z,82.20
2018-11-07T14:15:49.193Z,83.80
2018-11-07T14:18:17.744Z,83.10
2018-11-07T14:20:46.020Z,84.50
2018-11-07T14:23:14.315Z,85.30
2018-11-07T14:25:43.011Z,84.90
2018-11-07T14:28:11.310Z,84.80
2018-11-07T14:30:39.612Z,86.10
2018-11-07T14:33:08.030Z,86.80
2018-11-07T14:35:36.305Z,86.90
2018-11-07T14:38:04.666Z,87.30
2018-11-07T14:40:33.014Z,88.00
2018-11-07T14:43:01.222Z,88.30
2018-11-07T14:45:29.468Z,88.00
2018-11-07T14:47:57.844Z,88.80
2018-11-07T14:50:28.672Z,89.60
2018-11-07T14:52:56.877Z,89.60
2018-11-07T14:55:25.245Z,89.70
2018-11-07T14:57:53.522Z,90.20
2018-11-07T15:00:21.862Z,90.10
2018-11-07T15:02:50.328Z,89.00
2018-11-07T15:05:19.025Z,89.40
2018-11-07T15:07:47.324Z,90.50
2018-11-07T15:10:16.343Z,89.70
2018-11-07T15:12:44.595Z,90.30
2018-11-07T15:15:14.234Z,90.50
2018-11-07T15:17:42.626Z,90.10
2018-11-07T15:20:12.372Z,89.90
2018-11-07T15:22:40.940Z,90.40
2018-11-07T15:25:10.386Z,89.70
2018-11-07T15:27:38.919Z,90.30
2018-11-07T15:30:09.556Z,90.60
2018-11-07T15:32:38.351Z,90.20
2018-11-07T15:35:07.494Z,90.00
2018-11-07T15:37:36.592Z,90.40
2018-11-07T15:40:07.309Z,90.50
2018-11-07T15:42:35.659Z,90.20
2018-11-07T15:45:04.801Z,90.20
2018-11-07T15:47:33.361Z,90.00
2018-11-07T15:50:07.549Z,90.30
2018-11-07T15:52:35.886Z,90.30
2018-11-07T15:55:04.347Z,89.90
2018-11-07T15:57:32.809Z,90.00
2018-11-07T16:00:01.339Z,89.10
2018-11-07T16:02:29.558Z,90.20
2018-11-07T16:04:57.997Z,89.60
2018-11-07T16:07:26.315Z,89.40
2018-11-07T16:09:54.624Z,90.50
2018-11-07T16:12:22.963Z,90.00
2018-11-07T16:14:51.226Z,90.30
2018-11-07T16:17:19.510Z,89.70
2018-11-07T16:19:48.183Z,90.00
2018-11-07T16:22:16.488Z,90.40
2018-11-07T16:24:44.713Z,90.40
2018-11-07T16:27:13.151Z,89.60
2018-11-07T16:29:41.395Z,89.80
2018-11-07T16:32:09.690Z,90.70
2018-11-07T16:34:38.052Z,90.60
2018-11-07T16:37:06.389Z,90.70
2018-11-07T16:39:34.843Z,89.30
2018-11-07T16:42:03.108Z,90.30
2018-11-07T16:44:31.530Z,89.80
2018-11-07T16:46:59.862Z,90.00
2018-11-07T16:49:28.258Z,89.70
2018-11-07T16:51:56.791Z,90.20
2018-11-07T16:54:25.100Z,90.10
2018-11-07T16:56:53.420Z,90.10
2018-11-07T16:59:21.760Z,90.50
2018-11-07T17:01:50.151Z,89.90
2018-11-07T17:04:18.532Z,90.00
2018-11-07T17:06:46.819Z,88.90
2018-11-07T17:09:15.472Z,89.50
2018-11-07T17:11:43.966Z,89.30
2018-11-07T17:14:12.331Z,89.00
2018-11-07T17:16:40.785Z,89.20
2018-11-07T17:19:09.047Z,89.30
2018-11-07T17:21:37.543Z,88.50
2018-11-07T17:24:05.817Z,90.10
2018-11-07T17:26:34.106Z,90.10
2018-11-07T17:29:02.566Z,90.20
2018-11-07T17:31:31.015Z,90.00
2018-11-07T17:33:59.342Z,88.40
2018-11-07T17:36:27.628Z,88.40
2018-11-07T17:38:55.945Z,88.60
2018-11-07T17:41:24.306Z,88.40
2018-11-07T17:43:52.595Z,89.00
2018-11-07T17:46:20.976Z,88.70
2018-11-07T17:48:49.329Z,88.70
2018-11-07T17:51:17.734Z,88.60
2018-11-07T17:53:46.133Z,88.30
2018-11-07T17:56:14.572Z,87.90
2018-11-07T17:58:43.618Z,88.30
2018-11-07T18:01:11.999Z,89.00
2018-11-07T18:06:14.193Z,87.90
2018-11-07T18:08:43.348Z,89.00
2018-11-07T18:11:11.882Z,90.00
2018-11-07T18:13:42.382Z,89.20
2018-11-07T18:16:10.799Z,88.30
2018-11-07T18:18:39.406Z,88.70
2018-11-07T18:21:08.222Z,89.10
2018-11-07T18:23:39.073Z,88.40
2018-11-07T18:26:08.527Z,88.30
2018-11-07T18:28:36.852Z,89.10
2018-11-07T18:31:05.521Z,89.60
2018-11-07T18:33:34.009Z,88.90
2018-11-07T18:36:02.420Z,90.10
2018-11-07T18:38:30.721Z,89.80
2018-11-07T18:40:59.311Z,89.20
2018-11-07T18:43:27.698Z,87.70
2018-11-07T18:45:56.101Z,88.70
2018-11-07T18:48:24.442Z,88.10
2018-11-07T18:50:53.347Z,88.10
2018-11-07T18:53:21.909Z,87.80
2018-11-07T18:55:50.507Z,88.40
2018-11-07T18:58:19.226Z,89.00
2018-11-07T19:00:47.603Z,89.50
2018-11-07T19:03:16.282Z,88.60
2018-11-07T19:05:47.012Z,89.50
2018-11-07T19:08:15.314Z,89.10
2018-11-07T19:10:43.901Z,89.50
2018-11-07T19:13:13.536Z,88.60
2018-11-07T19:15:44.101Z,89.10
2018-11-07T19:18:12.835Z,88.70
2018-11-07T19:20:41.338Z,88.60
2018-11-07T19:23:09.928Z,88.30
2018-11-07T19:25:38.996Z,89.60
2018-11-07T19:28:09.163Z,90.00
2018-11-07T19:30:37.618Z,88.40
2018-11-07T19:33:07.532Z,90.00
2018-11-07T19:35:37.032Z,88.90
2018-11-07T19:38:05.816Z,89.10
2018-11-07T19:40:35.149Z,90.30
2018-11-07T19:43:03.709Z,89.60
2018-11-07T19:45:34.681Z,88.80
2018-11-07T19:48:03.813Z,89.40
2018-11-07T19:50:38.214Z,90.60
2018-11-07T19:53:06.910Z,90.30
2018-11-07T19:55:35.351Z,90.00
2018-11-07T19:58:04.379Z,90.30
2018-11-07T20:00:33.232Z,90.60
2018-11-07T20:03:01.734Z,90.20
2018-11-07T20:05:30.114Z,90.40
2018-11-07T20:08:04.342Z,89.90
2018-11-07T20:10:33.995Z,90.20
2018-11-07T20:13:04.219Z,90.20
2018-11-07T20:15:33.409Z,90.80
2018-11-07T20:18:04.944Z,90.30
2018-11-07T20:20:34.159Z,90.00
2018-11-07T20:23:02.703Z,90.80
2018-11-07T20:25:31.355Z,90.50
2018-11-07T20:28:00.316Z,90.60
2018-11-07T20:30:28.821Z,90.80
2018-11-07T20:32:57.392Z,90.90
2018-11-07T20:35:25.898Z,90.30
2018-11-07T20:38:03.357Z,91.10
2018-11-07T20:40:33.180Z,91.00
2018-11-07T20:43:02.037Z,90.80
2018-11-07T20:45:30.570Z,90.60
2018-11-07T20:47:59.095Z,90.80
2018-11-07T20:50:29.117Z,90.70
2018-11-07T20:52:58.658Z,90.80
2018-11-07T20:55:28.121Z,91.60
2018-11-07T20:57:56.620Z,91.00
2018-11-07T21:00:25.445Z,90.70
2018-11-07T21:05:27.254Z,90.90
2018-11-07T21:07:57.115Z,91.30
2018-11-07T21:10:27.871Z,90.90
2018-11-07T21:12:56.351Z,91.00
2018-11-07T21:15:28.033Z,90.90
2018-11-07T21:17:58.111Z,90.90
2018-11-07T21:20:26.674Z,90.70
2018-11-07T21:22:56.344Z,90.70
2018-11-07T21:25:24.796Z,90.30
2018-11-07T21:27:53.389Z,90.10
2018-11-07T21:30:21.832Z,90.50
2018-11-07T21:32:50.427Z,90.30
2018-11-07T21:35:19.012Z,90.30
2018-11-07T21:37:47.573Z,90.70
2018-11-07T21:40:16.971Z,90.60
2018-11-07T21:42:46.504Z,90.60
2018-11-07T21:45:15.500Z,90.40
2018-11-07T21:47:45.195Z,90.40
2018-11-07T21:50:15.829Z,90.80
2018-11-07T21:52:44.411Z,91.10
2018-11-07T21:55:13.235Z,90.40
2018-11-07T21:57:41.799Z,90.40
2018-11-07T22:00:19.188Z,90.60
2018-11-07T22:02:48.502Z,91.10
2018-11-07T22:05:20.047Z,90.60
2018-11-07T22:07:48.531Z,91.40
2018-11-07T22:10:17.947Z,90.60
2018-11-07T22:12:46.525Z,90.60
2018-11-07T22:15:15.017Z,90.70
2018-11-07T22:17:45.320Z,90.80
2018-11-07T22:20:19.291Z,90.30
2018-11-07T22:22:47.861Z,90.70
2018-11-07T22:25:16.279Z,90.90
2018-11-07T22:27:44.941Z,90.50
2018-11-07T22:30:14.973Z,90.70
2018-11-07T22:32:43.556Z,90.20
2018-11-07T22:35:13.788Z,90.60
2018-11-07T22:37:44.012Z,90.50
2018-11-07T22:40:15.605Z,90.40
2018-11-07T22:42:44.053Z,90.60
2018-11-07T22:45:13.286Z,90.80
2018-11-07T22:47:41.959Z,91.00
2018-11-07T22:50:12.742Z,91.00
2018-11-07T22:52:42.412Z,90.60
2018-11-07T22:55:11.024Z,91.20
2018-11-07T22:57:40.668Z,91.10
2018-11-07T23:00:17.695Z,90.90
2018-11-07T23:02:47.088Z,91.30
2018-11-07T23:05:15.942Z,90.80
2018-11-07T23:07:44.649Z,90.70
2018-11-07T23:10:13.348Z,90.90
2018-11-07T23:12:41.890Z,90.90
2018-11-07T23:15:14.204Z,91.10
2018-11-07T23:17:42.686Z,90.80
2018-11-07T23:20:11.196Z,91.40
2018-11-07T23:22:41.786Z,90.80
2018-11-07T23:25:10.924Z,90.50
2018-11-07T23:27:39.559Z,90.80
2018-11-07T23:30:09.126Z,90.80
2018-11-07T23:32:37.759Z,91.20
2018-11-07T23:35:07.797Z,91.10
2018-11-07T23:37:36.779Z,91.80
2018-11-07T23:40:05.765Z,92.10
2018-11-07T23:42:34.366Z,91.60
2018-11-07T23:45:02.989Z,92.00
2018-11-07T23:47:32.551Z,91.40
2018-11-07T23:50:02.965Z,91.40
2018-11-07T23:52:36.920Z,91.60
2018-11-07T23:55:06.211Z,91.60
2018-11-07T23:57:35.563Z,90.90
